Time,TemperatureF,DewpointF,PressureIn,WindDirection,WindDirectionDegrees,WindSpeedMPH,WindSpeedGustMPH,Humidity,HourlyPrecipIn,Conditions,Clouds,dailyrainin,SoftwareType,DateUTC
2013-09-27 00:43:00,42.0,27.0,-100.00,NNW,330,10.0,19.0,54,-99.99,,,-99.99,,2013-09-27 07:43:00,
2013-09-27 00:53:00,42.0,27.0,-100.00,NNW,340,10.0,19.0,55,-99.99,,,-99.99,,2013-09-27 07:53:00,
2013-09-27 01:11:00,42.0,27.0,-100.00,NNW,330,12.0,19.0,56,-99.99,,,-99.99,,2013-09-27 08:11:00,
2013-09-27 01:22:00,42.0,27.0,-100.00,NW,325,9.0,19.0,55,-99.99,,,-99.99,,2013-09-27 08:22:00,
2013-09-27 01:42:00,42.0,27.0,-100.00,NW,325,10.0,17.0,55,-99.99,,,-99.99,,2013-09-27 08:42:00,
2013-09-27 03:12:00,41.0,29.0,-100.00,NNW,335,7.0,17.0,60,-99.99,,,-99.99,,2013-09-27 10:12:00,
2013-09-27 03:42:00,41.0,28.0,-100.00,NW,320,6.0,12.0,60,-99.99,,,-99.99,,2013-09-27 10:42:00,
2013-09-27 03:52:00,40.0,28.0,-100.00,North,350,7.0,14.0,61,-99.99,,,-99.99,,2013-09-27 10:52:00,
2013-09-27 04:12:00,41.0,28.0,-100.00,NW,325,7.0,17.0,59,-99.99,,,-99.99,,2013-09-27 11:12:00,
2013-09-27 04:22:00,41.0,28.0,-100.00,NNW,335,9.0,17.0,58,-99.99,,,-99.99,,2013-09-27 11:22:00,
2013-09-27 04:42:00,41.0,27.0,-100.00,NNW,345,8.0,16.0,57,-99.99,,,-99.99,,2013-09-27 11:42:00,
2013-09-27 04:52:00,40.0,27.0,-100.00,NNW,330,6.0,12.0,58,-99.99,,,-99.99,,2013-09-27 11:52:00,
2013-09-27 05:02:00,40.0,27.0,-100.00,NNW,330,6.0,12.0,58,-99.99,,,-99.99,,2013-09-27 12:02:00,
2013-09-27 05:42:00,39.0,28.0,-100.00,ESE,115,0.0,7.0,64,-99.99,,,-99.99,,2013-09-27 12:42:00,
2013-09-27 06:42:00,35.0,28.0,-100.00,NNW,345,1.0,3.0,75,-99.99,,,-99.99,,2013-09-27 13:42:00,
2013-09-27 07:42:00,32.0,27.0,-100.00,North,0,0.0,1.0,81,-99.99,,,-99.99,,2013-09-27 14:42:00,
2013-09-27 08:44:00,36.0,31.0,-100.00,NNW,345,1.0,3.0,83,-99.99,,,-99.99,,2013-09-27 15:44:00,
2013-09-27 08:54:00,38.0,32.0,-100.00,North,0,2.0,4.0,79,-99.99,,,-99.99,,2013-09-27 15:54:00,
2013-09-27 09:04:00,38.0,32.0,-100.00,North,0,2.0,4.0,79,-99.99,,,-99.99,,2013-09-27 16:04:00,
2013-09-27 09:53:00,45.0,29.0,-100.00,NW,310,2.0,8.0,53,-99.99,,,-99.99,,2013-09-27 16:53:00,
2013-09-27 10:03:00,45.0,29.0,-100.00,NW,310,2.0,8.0,53,-99.99,,,-99.99,,2013-09-27 17:03:00,
2013-09-27 10:43:00,47.0,27.0,-100.00,WNW,295,4.0,9.0,46,-99.99,,,-99.99,,2013-09-27 17:43:00,
2013-09-27 11:43:00,51.0,26.0,-100.00,NNW,335,6.0,9.0,38,-99.99,,,-99.99,,2013-09-27 18:43:00,
2013-09-27 12:42:00,54.0,25.0,-100.00,NNW,330,8.0,17.0,32,-99.99,,,-99.99,,2013-09-27 19:42:00,
2013-09-27 12:53:00,54.0,24.0,-100.00,WNW,290,6.0,14.0,31,-99.99,,,-99.99,,2013-09-27 19:53:00,
2013-09-27 13:03:00,54.0,24.0,-100.00,WNW,290,6.0,14.0,31,-99.99,,,-99.99,,2013-09-27 20:03:00,
2013-09-27 14:44:00,55.0,18.0,-100.00,NW,325,9.0,17.0,23,-99.99,,,-99.99,,2013-09-27 21:44:00,
2013-09-27 14:54:00,58.0,19.0,-100.00,North,0,10.0,16.0,22,-99.99,,,-99.99,,2013-09-27 21:54:00,
2013-09-27 15:04:00,58.0,19.0,-100.00,North,0,10.0,16.0,22,-99.99,,,-99.99,,2013-09-27 22:04:00,
2013-09-27 16:43:00,62.0,5.0,-100.00,North,0,11.0,17.0,10,-99.99,,,-99.99,,2013-09-27 23:43:00,
2013-09-27 17:22:00,62.0,5.0,-100.00,NNW,345,9.0,17.0,10,-99.99,,,-99.99,,2013-09-28 00:22:00,
2013-09-27 19:12:00,56.0,13.0,-100.00,WNW,295,4.0,7.0,18,-99.99,,,-99.99,,2013-09-28 02:12:00,
2013-09-27 20:12:00,51.0,19.0,-100.00,West,270,3.0,6.0,28,-99.99,,,-99.99,,2013-09-28 03:12:00,
2013-09-27 20:45:00,50.0,19.0,-100.00,NW,305,3.0,6.0,28,-99.99,,,-99.99,,2013-09-28 03:45:00,
2013-09-27 20:55:00,51.0,18.0,-100.00,WNW,300,3.0,7.0,26,-99.99,,,-99.99,,2013-09-28 03:55:00,
2013-09-27 21:04:00,51.0,18.0,-100.00,WNW,300,3.0,7.0,26,-99.99,,,-99.99,,2013-09-28 04:04:00,
2013-09-27 21:24:00,48.0,20.0,-100.00,NW,325,2.0,3.0,32,-99.99,,,-99.99,,2013-09-28 04:24:00,
2013-09-27 21:43:00,47.0,19.0,-100.00,NW,310,3.0,4.0,32,-99.99,,,-99.99,,2013-09-28 04:43:00,
2013-09-27 21:54:00,48.0,19.0,-100.00,NE,40,1.0,4.0,31,-99.99,,,-99.99,,2013-09-28 04:54:00,
2013-09-27 22:43:00,46.0,17.0,-100.00,NNW,340,1.0,2.0,31,-99.99,,,-99.99,,2013-09-28 05:43:00,